createdAt,value
2019-04-14T00:01:23.859Z,65.60
2019-04-14T00:04:05.243Z,65.50
2019-04-14T00:06:39.659Z,65.90
2019-04-14T00:09:16.209Z,65.90
2019-04-14T00:11:48.130Z,66.20
2019-04-14T00:14:19.313Z,66.10
2019-04-14T00:16:51.503Z,66.40
2019-04-14T00:19:22.040Z,66.60
2019-04-14T00:21:52.571Z,66.60
2019-04-14T00:24:23.096Z,66.60
2019-04-14T00:26:53.636Z,66.80
2019-04-14T00:29:24.646Z,67.00
2019-04-14T00:31:55.794Z,66.80
2019-04-14T00:34:40.534Z,67.10
2019-04-14T00:37:31.644Z,67.30
2019-04-14T00:40:21.546Z,67.40
2019-04-14T00:43:00.581Z,67.40
2019-04-14T00:45:42.637Z,67.30
2019-04-14T00:48:14.431Z,67.40
2019-04-14T00:50:43.117Z,67.40
2019-04-14T00:53:14.305Z,67.30
2019-04-14T00:55:46.365Z,67.30
2019-04-14T00:58:17.235Z,67.50
2019-04-14T01:00:47.878Z,67.60
2019-04-14T01:03:19.874Z,67.80
2019-04-14T01:05:50.912Z,67.80
2019-04-14T01:08:22.698Z,67.60
2019-04-14T01:10:54.055Z,67.90
2019-04-14T01:13:26.692Z,68.20
2019-04-14T01:16:05.243Z,68.10
2019-04-14T01:18:49.449Z,67.90
2019-04-14T01:21:20.109Z,68.10
2019-04-14T01:23:50.919Z,69.40
2019-04-14T01:26:22.447Z,68.50
2019-04-14T01:28:56.801Z,68.70
2019-04-14T01:31:27.400Z,68.50
2019-04-14T01:33:57.827Z,68.70
2019-04-14T01:36:28.242Z,68.80
2019-04-14T01:38:58.632Z,69.00
2019-04-14T01:41:30.226Z,69.00
2019-04-14T01:44:01.075Z,69.20
2019-04-14T01:46:34.044Z,68.80
2019-04-14T01:49:05.027Z,68.70
2019-04-14T01:52:03.644Z,68.50
2019-04-14T01:55:06.973Z,68.90
2019-04-14T01:57:55.155Z,68.80
2019-04-14T02:00:59.754Z,68.90
2019-04-14T02:03:30.353Z,68.80
2019-04-14T02:06:00.843Z,68.80
2019-04-14T02:08:31.430Z,69.00
2019-04-14T02:11:02.980Z,69.20
2019-04-14T02:13:35.344Z,69.30
2019-04-14T02:16:18.483Z,69.50
2019-04-14T02:18:38.724Z,70.00
2019-04-14T02:21:10.743Z,70.30
2019-04-14T02:23:41.357Z,70.10
2019-04-14T02:26:13.251Z,70.40
2019-04-14T02:28:43.948Z,70.60
2019-04-14T02:31:30.093Z,71.40
2019-04-14T02:34:19.162Z,70.70
2019-04-14T02:36:46.257Z,71.00
2019-04-14T02:39:22.325Z,70.80
2019-04-14T02:44:33.631Z,70.70
2019-04-14T02:46:53.087Z,70.70
2019-04-14T02:49:27.270Z,70.70
2019-04-14T02:51:58.503Z,70.40
2019-04-14T02:54:50.403Z,70.30
2019-04-14T02:59:37.133Z,70.50
2019-04-14T03:04:44.927Z,70.70
2019-04-14T03:07:19.096Z,70.80
2019-04-14T03:12:29.035Z,71.20
2019-04-14T03:14:53.649Z,71.50
2019-04-14T03:17:43.321Z,71.70
2019-04-14T03:23:19.151Z,72.00
2019-04-14T03:25:43.691Z,72.60
2019-04-14T03:34:07.568Z,73.30
2019-04-14T03:38:36.522Z,73.50
2019-04-14T03:41:18.818Z,73.60
2019-04-14T03:43:36.966Z,73.50
2019-04-14T03:46:19.371Z,74.50
2019-04-14T03:56:35.572Z,74.20
2019-04-14T03:59:06.740Z,74.70
2019-04-14T04:01:37.274Z,74.70
2019-04-14T04:04:07.767Z,74.90
2019-04-14T04:06:39.841Z,74.60
2019-04-14T04:09:10.569Z,74.70
2019-04-14T04:11:43.309Z,74.60
2019-04-14T04:14:14.031Z,74.70
2019-04-14T04:16:55.663Z,75.10
2019-04-14T04:20:04.488Z,75.00
2019-04-14T04:22:54.367Z,75.30
2019-04-14T04:25:36.244Z,75.20
2019-04-14T04:28:25.552Z,75.50
2019-04-14T04:31:06.721Z,76.10
2019-04-14T04:33:52.493Z,76.10
2019-04-14T04:36:29.114Z,75.90
2019-04-14T04:39:21.522Z,76.10
2019-04-14T04:41:52.060Z,76.00
2019-04-14T04:44:22.604Z,76.20
2019-04-14T04:46:53.104Z,75.80
2019-04-14T04:49:26.507Z,76.10
2019-04-14T04:51:55.825Z,76.40
2019-04-14T04:54:27.920Z,76.40
2019-04-14T04:56:58.544Z,76.40
2019-04-14T04:59:29.954Z,76.70
2019-04-14T05:02:02.575Z,76.30
2019-04-14T05:04:33.232Z,76.30
2019-04-14T05:07:03.798Z,76.00
2019-04-14T05:09:52.048Z,75.90
2019-04-14T05:12:32.788Z,75.70
2019-04-14T05:15:22.656Z,75.70
2019-04-14T05:17:53.757Z,75.90
2019-04-14T05:20:24.897Z,75.90
2019-04-14T05:22:55.430Z,76.00
2019-04-14T05:25:26.003Z,76.00
2019-04-14T05:27:56.556Z,81.20
2019-04-14T05:30:27.104Z,83.00
2019-04-14T05:32:58.513Z,80.80
2019-04-14T05:35:29.409Z,82.10
2019-04-14T05:38:00.396Z,78.70
2019-04-14T05:43:33.702Z,76.10
2019-04-14T05:45:54.498Z,75.20
2019-04-14T05:48:25.166Z,75.10
2019-04-14T05:50:55.795Z,75.20
2019-04-14T05:53:26.330Z,75.10
2019-04-14T05:55:57.081Z,74.80
2019-04-14T05:58:27.579Z,74.80
2019-04-14T06:00:58.067Z,74.80
2019-04-14T06:03:29.650Z,75.10
2019-04-14T06:06:00.980Z,74.90
2019-04-14T06:08:31.483Z,75.10
2019-04-14T06:11:02.573Z,75.40
2019-04-14T06:13:33.728Z,75.60
2019-04-14T06:16:06.593Z,76.50
2019-04-14T06:18:37.116Z,76.80
2019-04-14T06:21:07.691Z,76.50
2019-04-14T06:23:38.685Z,76.10
2019-04-14T06:26:10.727Z,76.00
2019-04-14T06:28:41.348Z,75.70
2019-04-14T06:31:48.965Z,75.20
2019-04-14T06:34:44.604Z,75.80
2019-04-14T06:37:29.605Z,75.20
2019-04-14T06:40:00.152Z,75.10
2019-04-14T06:42:30.743Z,75.10
2019-04-14T06:45:01.321Z,75.00
2019-04-14T06:47:32.237Z,75.00
2019-04-14T06:50:02.768Z,75.70
2019-04-14T06:52:33.340Z,75.80
2019-04-14T06:55:03.983Z,75.70
2019-04-14T06:57:34.485Z,75.80
2019-04-14T07:00:05.389Z,76.20
2019-04-14T07:02:36.052Z,77.20
2019-04-14T07:05:07.064Z,76.50
2019-04-14T07:07:37.596Z,76.50
2019-04-14T07:10:08.009Z,75.20
2019-04-14T07:12:42.840Z,74.70
2019-04-14T07:15:12.732Z,73.80
2019-04-14T07:17:43.491Z,73.30
2019-04-14T07:20:14.126Z,72.00
2019-04-14T07:22:45.305Z,72.20
2019-04-14T07:25:16.150Z,71.30
2019-04-14T07:27:47.132Z,69.80
2019-04-14T07:30:43.288Z,69.20
2019-04-14T07:33:39.675Z,69.40
2019-04-14T07:36:47.280Z,68.50
2019-04-14T07:39:50.473Z,68.50
2019-04-14T07:42:39.981Z,68.60
2019-04-14T07:45:17.680Z,68.70
2019-04-14T07:48:09.938Z,68.60
2019-04-14T07:51:05.259Z,68.50
2019-04-14T07:53:45.692Z,68.70
2019-04-14T07:56:40.984Z,69.30
2019-04-14T07:59:17.415Z,68.60
2019-04-14T08:01:53.340Z,69.40
2019-04-14T08:04:29.268Z,69.10
2019-04-14T08:07:00.527Z,68.50
2019-04-14T08:09:31.125Z,66.80
2019-04-14T08:12:01.700Z,65.70
2019-04-14T08:14:32.981Z,64.80
2019-04-14T08:17:03.635Z,63.80
2019-04-14T08:19:35.252Z,63.30
2019-04-14T08:22:06.676Z,62.80
2019-04-14T08:24:37.411Z,62.70
2019-04-14T08:27:08.005Z,60.90
2019-04-14T08:29:39.294Z,59.70
2019-04-14T08:32:10.229Z,59.60
2019-04-14T08:34:40.764Z,59.50
2019-04-14T08:37:11.281Z,58.90
2019-04-14T08:39:42.457Z,58.50
2019-04-14T08:42:38.332Z,58.60
2019-04-14T08:45:17.905Z,57.60
2019-04-14T08:47:57.707Z,55.80
2019-04-14T08:50:39.710Z,54.60
2019-04-14T08:53:32.337Z,54.30
2019-04-14T08:56:37.264Z,52.40
2019-04-14T08:59:34.768Z,51.60
2019-04-14T09:02:23.487Z,51.70
2019-04-14T09:05:03.116Z,52.00
2019-04-14T09:07:38.814Z,51.10
2019-04-14T09:10:14.838Z,51.40
2019-04-14T09:12:47.424Z,50.60
2019-04-14T09:15:17.953Z,50.40
2019-04-14T09:17:48.516Z,50.00
2019-04-14T09:20:19.623Z,50.10
2019-04-14T09:22:52.302Z,48.40
2019-04-14T09:25:23.355Z,48.30
2019-04-14T09:27:54.988Z,47.70
2019-04-14T09:30:25.515Z,46.60
2019-04-14T09:32:57.253Z,46.50
2019-04-14T09:35:28.748Z,46.90
2019-04-14T09:37:59.440Z,47.30
2019-04-14T09:40:30.304Z,47.50
2019-04-14T09:43:01.416Z,47.90
2019-04-14T09:45:32.447Z,48.40
2019-04-14T09:48:03.049Z,48.60
2019-04-14T09:50:36.388Z,48.10
2019-04-14T09:53:07.533Z,47.90
2019-04-14T09:55:38.640Z,47.70
2019-04-14T09:58:40.772Z,47.50
2019-04-14T10:01:16.766Z,48.40
2019-04-14T10:03:47.334Z,49.20
2019-04-14T10:06:18.916Z,49.60
2019-04-14T10:09:10.286Z,48.90
2019-04-14T10:11:48.850Z,50.40
2019-04-14T10:14:19.199Z,50.30
2019-04-14T10:16:49.720Z,50.10
2019-04-14T10:19:20.623Z,50.30
2019-04-14T10:21:51.243Z,50.30
2019-04-14T10:24:21.741Z,50.20
2019-04-14T10:26:54.828Z,49.40
2019-04-14T10:29:26.120Z,48.60
2019-04-14T10:31:57.817Z,47.60
2019-04-14T10:34:28.326Z,47.80
2019-04-14T10:36:58.864Z,47.60
2019-04-14T10:39:29.406Z,47.00
2019-04-14T10:42:00.646Z,46.60
2019-04-14T10:44:31.678Z,47.90
2019-04-14T10:47:02.737Z,48.00
2019-04-14T10:49:33.693Z,48.90
2019-04-14T10:52:04.778Z,48.40
2019-04-14T10:54:35.937Z,47.80
2019-04-14T10:57:06.875Z,47.70
2019-04-14T10:59:37.892Z,48.60
2019-04-14T11:02:08.447Z,48.30
2019-04-14T11:04:39.337Z,48.50
2019-04-14T11:07:14.896Z,48.60
2019-04-14T11:09:49.524Z,48.50
2019-04-14T11:12:21.324Z,48.80
2019-04-14T11:14:52.199Z,49.50
2019-04-14T11:17:22.695Z,48.50
2019-04-14T11:19:53.399Z,48.40
2019-04-14T11:22:23.904Z,48.30
2019-04-14T11:24:55.337Z,49.10
2019-04-14T11:27:25.860Z,49.80
2019-04-14T11:29:56.977Z,49.70
2019-04-14T11:32:58.756Z,49.20
2019-04-14T11:35:36.908Z,49.80
2019-04-14T11:38:14.471Z,49.30
2019-04-14T11:40:47.945Z,49.30
2019-04-14T11:43:18.469Z,50.20
2019-04-14T11:45:49.528Z,49.70
2019-04-14T11:48:20.218Z,49.90
2019-04-14T11:50:51.283Z,49.70
2019-04-14T11:53:25.666Z,49.60
2019-04-14T11:55:56.694Z,49.70
2019-04-14T11:58:29.127Z,50.20
2019-04-14T12:01:24.952Z,50.00
2019-04-14T12:04:07.419Z,50.00
2019-04-14T12:06:57.921Z,50.80
2019-04-14T12:09:31.661Z,50.90
2019-04-14T12:12:03.516Z,55.00
2019-04-14T12:14:35.093Z,52.40
2019-04-14T12:17:06.428Z,51.40
2019-04-14T12:19:37.559Z,50.80
2019-04-14T12:22:08.936Z,50.60
2019-04-14T12:24:39.593Z,50.70
2019-04-14T12:27:10.193Z,50.80
2019-04-14T12:29:41.240Z,50.40
2019-04-14T12:32:12.889Z,50.80
2019-04-14T12:34:43.617Z,51.10
2019-04-14T12:37:14.992Z,51.70
2019-04-14T12:39:45.717Z,51.30
2019-04-14T12:42:37.835Z,50.40
2019-04-14T12:45:27.385Z,50.60
2019-04-14T12:48:22.606Z,50.80
2019-04-14T12:50:59.881Z,50.80
2019-04-14T12:53:31.218Z,51.20
2019-04-14T12:56:01.608Z,51.40
2019-04-14T12:58:53.995Z,51.50
2019-04-14T13:01:26.688Z,51.90
2019-04-14T13:03:57.130Z,51.50
2019-04-14T13:06:28.245Z,51.50
2019-04-14T13:08:58.820Z,51.90
2019-04-14T13:11:30.258Z,51.60
2019-04-14T13:14:00.839Z,51.40
2019-04-14T13:16:31.501Z,51.50
2019-04-14T13:19:02.100Z,51.80
2019-04-14T13:21:34.724Z,51.20
2019-04-14T13:24:06.005Z,50.70
2019-04-14T13:26:37.807Z,51.00
2019-04-14T13:29:08.567Z,50.90
2019-04-14T13:31:39.534Z,51.00
2019-04-14T13:34:10.056Z,50.90
2019-04-14T13:36:40.628Z,51.30
2019-04-14T13:39:12.747Z,51.20
2019-04-14T13:41:43.601Z,50.60
2019-04-14T13:44:14.486Z,50.80
2019-04-14T13:46:45.507Z,51.40
2019-04-14T13:49:16.345Z,51.80
2019-04-14T13:51:47.274Z,51.50
2019-04-14T13:54:17.829Z,51.00
2019-04-14T13:56:48.584Z,50.80
2019-04-14T13:59:19.539Z,51.00
2019-04-14T14:01:50.393Z,50.70
2019-04-14T14:04:20.908Z,50.90
2019-04-14T14:06:52.693Z,50.70
2019-04-14T14:09:23.247Z,50.90
2019-04-14T14:12:05.316Z,50.40
2019-04-14T14:14:54.573Z,50.40
2019-04-14T14:17:42.812Z,50.20
2019-04-14T14:20:33.209Z,50.40
2019-04-14T14:23:29.421Z,50.80
2019-04-14T14:26:03.324Z,51.10
2019-04-14T14:28:35.149Z,51.30
2019-04-14T14:31:06.292Z,51.20
2019-04-14T14:33:39.293Z,51.20
2019-04-14T14:36:09.784Z,51.00
2019-04-14T14:38:40.923Z,51.00
2019-04-14T14:41:15.500Z,51.30
2019-04-14T14:43:48.995Z,51.30
2019-04-14T14:46:44.393Z,51.40
2019-04-14T14:49:25.599Z,50.70
2019-04-14T14:52:03.204Z,50.50
2019-04-14T14:54:34.156Z,50.60
2019-04-14T14:57:05.757Z,50.50
2019-04-14T14:59:36.254Z,50.50
2019-04-14T15:02:07.841Z,49.90
2019-04-14T15:04:38.407Z,49.60
2019-04-14T15:07:09.833Z,49.30
2019-04-14T15:09:40.390Z,49.50
2019-04-14T15:12:11.386Z,50.10
2019-04-14T15:14:41.973Z,50.50
2019-04-14T15:17:12.741Z,50.30
2019-04-14T15:19:43.309Z,50.60
2019-04-14T15:22:16.455Z,51.40
2019-04-14T15:24:47.005Z,51.80
2019-04-14T15:27:17.905Z,51.80
2019-04-14T15:29:49.504Z,51.80
2019-04-14T15:32:20.457Z,51.20
2019-04-14T15:34:50.993Z,51.20
2019-04-14T15:37:21.552Z,51.30
2019-04-14T15:39:52.241Z,51.40
2019-04-14T15:42:22.888Z,51.70
2019-04-14T15:44:53.881Z,51.80
2019-04-14T15:47:24.869Z,52.20
2019-04-14T15:49:55.972Z,52.20
2019-04-14T15:52:26.938Z,52.40
2019-04-14T15:54:57.876Z,52.80
2019-04-14T15:57:47.737Z,52.60
2019-04-14T16:00:43.641Z,52.30
2019-04-14T16:03:36.441Z,52.30
2019-04-14T16:06:30.405Z,52.50
2019-04-14T16:09:07.680Z,52.80
2019-04-14T16:11:54.205Z,53.30
2019-04-14T16:14:44.448Z,53.70
2019-04-14T16:17:33.255Z,53.60
2019-04-14T16:20:09.812Z,54.00
2019-04-14T16:22:40.514Z,54.90
2019-04-14T16:25:12.188Z,55.10
2019-04-14T16:27:54.776Z,55.40
2019-04-14T16:30:44.585Z,55.60
2019-04-14T16:33:30.296Z,55.70
2019-04-14T16:36:02.897Z,55.80
2019-04-14T16:38:33.917Z,55.70
2019-04-14T16:41:04.540Z,55.60
2019-04-14T16:43:35.254Z,55.70
2019-04-14T16:46:06.360Z,55.70
2019-04-14T16:48:38.573Z,56.60
2019-04-14T16:51:10.659Z,56.40
2019-04-14T16:53:42.893Z,56.60
2019-04-14T16:56:31.080Z,56.50
2019-04-14T16:59:05.951Z,56.20
2019-04-14T17:01:41.367Z,56.80
2019-04-14T17:04:12.350Z,56.80
2019-04-14T17:06:45.745Z,57.10
2019-04-14T17:09:16.284Z,57.40
2019-04-14T17:11:47.847Z,57.80
2019-04-14T17:14:37.322Z,58.50
2019-04-14T17:17:26.071Z,58.20
2019-04-14T17:20:05.336Z,58.30
2019-04-14T17:22:58.365Z,58.40
2019-04-14T17:25:48.840Z,58.50
2019-04-14T17:28:44.301Z,58.20
2019-04-14T17:31:36.971Z,58.90
2019-04-14T17:34:22.324Z,58.30
2019-04-14T17:37:11.677Z,58.70
2019-04-14T17:39:47.279Z,58.90
2019-04-14T17:42:27.870Z,59.00
2019-04-14T17:45:08.180Z,59.20
2019-04-14T17:47:51.654Z,59.30
2019-04-14T17:50:41.005Z,59.30
2019-04-14T17:53:44.525Z,59.40
2019-04-14T17:56:31.254Z,59.70
2019-04-14T17:59:21.774Z,59.90
2019-04-14T18:02:15.643Z,59.80
2019-04-14T18:05:02.810Z,59.90
2019-04-14T18:07:52.869Z,60.10
2019-04-14T18:10:49.927Z,60.30
2019-04-14T18:13:33.697Z,60.50
2019-04-14T18:16:22.598Z,60.80
2019-04-14T18:19:12.447Z,61.00
2019-04-14T18:21:44.505Z,61.10
2019-04-14T18:24:14.981Z,61.20
2019-04-14T18:26:45.812Z,61.40
2019-04-14T18:29:33.703Z,61.70
2019-04-14T18:32:24.639Z,61.80
2019-04-14T18:35:14.553Z,61.70
2019-04-14T18:38:04.955Z,61.70
2019-04-14T18:40:54.419Z,62.10
2019-04-14T18:43:53.215Z,61.70
2019-04-14T18:46:35.192Z,61.70
2019-04-14T18:49:16.345Z,61.80
2019-04-14T18:51:56.255Z,61.80
2019-04-14T18:54:32.610Z,61.90
2019-04-14T18:57:21.089Z,62.10
2019-04-14T19:00:04.173Z,62.20
2019-04-14T19:02:36.707Z,62.00
2019-04-14T19:05:07.845Z,62.20
2019-04-14T19:07:39.001Z,62.60
2019-04-14T19:10:10.901Z,63.10
2019-04-14T19:13:03.377Z,63.60
2019-04-14T19:15:52.756Z,63.90
2019-04-14T19:18:33.234Z,64.30
2019-04-14T19:21:07.163Z,64.80
2019-04-14T19:23:38.144Z,65.20
2019-04-14T19:26:09.784Z,65.50
2019-04-14T19:28:42.455Z,65.40
2019-04-14T19:31:14.906Z,65.70
2019-04-14T19:33:46.625Z,66.00
2019-04-14T19:36:17.209Z,66.40
2019-04-14T19:38:47.831Z,66.80
2019-04-14T19:41:18.909Z,67.40
2019-04-14T19:43:50.015Z,68.00
2019-04-14T19:46:20.948Z,68.50
2019-04-14T19:48:52.441Z,68.80
2019-04-14T19:51:23.560Z,69.60
2019-04-14T19:53:54.541Z,70.00
2019-04-14T19:56:25.170Z,70.90
2019-04-14T19:58:55.798Z,70.80
2019-04-14T20:01:27.496Z,71.30
2019-04-14T20:03:58.456Z,71.50
2019-04-14T20:06:30.176Z,71.80
2019-04-14T20:09:01.295Z,72.10
2019-04-14T20:11:33.850Z,72.20
2019-04-14T20:14:05.925Z,72.60
2019-04-14T20:16:46.626Z,73.20
2019-04-14T20:19:39.438Z,73.20
2019-04-14T20:22:44.396Z,73.60
2019-04-14T20:25:33.591Z,73.60
2019-04-14T20:28:06.031Z,74.40
2019-04-14T20:30:40.244Z,74.80
2019-04-14T20:33:10.944Z,75.10
2019-04-14T20:35:42.128Z,75.60
2019-04-14T20:38:12.690Z,76.10
2019-04-14T20:40:43.116Z,76.40
2019-04-14T20:43:14.020Z,76.40
2019-04-14T20:45:44.936Z,76.90
2019-04-14T20:48:15.357Z,77.20
2019-04-14T20:50:47.341Z,77.70
2019-04-14T20:53:19.713Z,78.10
2019-04-14T20:55:50.198Z,78.30
2019-04-14T20:58:21.039Z,78.80
2019-04-14T21:00:51.430Z,78.90
2019-04-14T21:03:47.068Z,79.30
2019-04-14T21:06:52.283Z,79.60
2019-04-14T21:09:29.932Z,79.80
2019-04-14T21:12:04.642Z,80.00
2019-04-14T21:15:00.086Z,80.30
2019-04-14T21:17:37.751Z,80.50
2019-04-14T21:20:22.073Z,81.00
2019-04-14T21:23:14.475Z,81.40
2019-04-14T21:26:00.805Z,81.70
2019-04-14T21:28:40.376Z,82.30
2019-04-14T21:31:24.904Z,82.80
2019-04-14T21:34:18.298Z,83.80
2019-04-14T21:37:13.900Z,85.10
2019-04-14T21:39:51.407Z,86.20
2019-04-14T21:42:22.345Z,88.00
2019-04-14T21:44:52.752Z,89.50
2019-04-14T21:47:23.179Z,90.30
2019-04-14T21:49:53.740Z,90.90
2019-04-14T21:52:41.309Z,92.00
2019-04-14T21:55:12.888Z,93.70
2019-04-14T21:57:49.021Z,95.40
2019-04-14T22:00:32.486Z,97.20
2019-04-14T22:03:32.838Z,99.40
2019-04-14T22:06:17.715Z,99.90
2019-04-14T22:08:50.250Z,99.90
2019-04-14T22:11:27.215Z,99.90
2019-04-14T22:13:59.549Z,99.90
2019-04-14T22:16:31.760Z,99.90
2019-04-14T22:19:02.284Z,99.90
2019-04-14T22:21:32.789Z,99.90
2019-04-14T22:24:03.809Z,99.90
2019-04-14T22:26:35.225Z,99.90
2019-04-14T22:29:06.628Z,99.90
2019-04-14T22:31:37.244Z,99.90
2019-04-14T22:34:08.305Z,99.90
2019-04-14T22:36:38.852Z,99.90
2019-04-14T22:39:20.754Z,99.90
2019-04-14T22:41:51.516Z,99.90
2019-04-14T22:44:21.920Z,99.90
2019-04-14T22:46:52.345Z,99.90
2019-04-14T22:49:22.937Z,99.90
2019-04-14T22:51:53.480Z,99.90
2019-04-14T22:54:24.445Z,99.90
2019-04-14T22:56:54.973Z,99.90
2019-04-14T22:59:25.494Z,99.90
2019-04-14T23:02:03.702Z,99.90
2019-04-14T23:04:46.536Z,99.90
2019-04-14T23:07:42.479Z,99.90
2019-04-14T23:10:29.384Z,99.90
2019-04-14T23:13:21.591Z,99.90
2019-04-14T23:16:03.268Z,99.90
2019-04-14T23:19:01.597Z,99.90
2019-04-14T23:21:38.994Z,99.90
2019-04-14T23:24:16.037Z,99.90
2019-04-14T23:26:52.886Z,99.90
2019-04-14T23:29:18.522Z,99.90
2019-04-14T23:31:49.325Z,99.90
2019-04-14T23:34:19.730Z,99.90
2019-04-14T23:36:51.015Z,99.90
2019-04-14T23:39:21.584Z,99.90
2019-04-14T23:41:52.109Z,99.90
2019-04-14T23:44:23.124Z,99.90
2019-04-14T23:46:53.633Z,99.90
2019-04-14T23:49:24.255Z,99.90
2019-04-14T23:51:55.246Z,99.90
2019-04-14T23:54:26.820Z,99.90
2019-04-14T23:57:05.356Z,99.90
2019-04-14T23:59:30.294Z,99.90
